createdAt,value
2022-10-29T00:00:23.696Z,101650.47
2022-10-29T00:02:41.232Z,101649.78
2022-10-29T00:04:58.417Z,101644.66
2022-10-29T00:07:13.788Z,101637.63
2022-10-29T00:09:18.282Z,101634.94
2022-10-29T00:11:27.008Z,101639.25
2022-10-29T00:13:31.761Z,101637.59
2022-10-29T00:15:55.067Z,101633.44
2022-10-29T00:17:58.827Z,101626.19
2022-10-29T00:20:01.060Z,101627.94
2022-10-29T00:22:04.771Z,101602.16
2022-10-29T00:24:11.546Z,101594.44
2022-10-29T00:26:15.051Z,101587.56
2022-10-29T00:28:18.556Z,101583.31
2022-10-29T00:30:27.291Z,101591.97
2022-10-29T00:32:39.703Z,101585.09
2022-10-29T00:34:41.769Z,101583.38
2022-10-29T00:36:49.171Z,101586.84
2022-10-29T00:38:54.295Z,101583.41
2022-10-29T00:40:59.146Z,101593.75
2022-10-29T00:43:13.891Z,101590.06
2022-10-29T00:45:22.540Z,101593.38
2022-10-29T00:47:29.570Z,101600.28
2022-10-29T00:49:36.370Z,101602.91
2022-10-29T00:51:39.101Z,101608.16
2022-10-29T00:53:53.295Z,101609.84
2022-10-29T00:55:56.467Z,101606.41
2022-10-29T00:57:59.858Z,101596.03
2022-10-29T01:00:02.739Z,101592.50
2022-10-29T01:02:07.422Z,101593.41
2022-10-29T01:04:15.973Z,101582.19
2022-10-29T01:06:24.261Z,101573.59
2022-10-29T01:08:26.292Z,101577.03
2022-10-29T01:10:33.831Z,101579.59
2022-10-29T01:12:49.931Z,101583.94
2022-10-29T01:15:01.270Z,101582.13
2022-10-29T01:17:11.547Z,101583.06
2022-10-29T01:19:46.013Z,101569.16
2022-10-29T01:22:00.017Z,101572.53
2022-10-29T01:24:11.880Z,101571.59
2022-10-29T01:26:33.736Z,101578.53
2022-10-29T01:28:59.407Z,101576.69
2022-10-29T01:31:11.031Z,101573.31
2022-10-29T01:33:29.276Z,101566.44
2022-10-29T01:35:38.311Z,101564.53
2022-10-29T01:38:00.177Z,101561.16
2022-10-29T01:40:08.306Z,101568.94
2022-10-29T01:42:22.207Z,101565.47
2022-10-29T01:44:40.988Z,101564.53
2022-10-29T01:46:51.690Z,101559.34
2022-10-29T01:48:55.232Z,101551.47
2022-10-29T01:51:10.118Z,101555.75
2022-10-29T01:53:13.879Z,101548.97
2022-10-29T01:55:20.477Z,101546.31
2022-10-29T01:57:29.487Z,101547.25
2022-10-29T01:59:51.331Z,101541.81
2022-10-29T02:02:06.896Z,101526.41
2022-10-29T02:04:19.526Z,101534.13
2022-10-29T02:06:33.956Z,101535.03
2022-10-29T02:08:43.550Z,101535.06
2022-10-29T02:10:55.645Z,101525.66
2022-10-29T02:12:58.629Z,101525.53
2022-10-29T02:15:12.871Z,101520.47
2022-10-29T02:17:14.757Z,101505.78
2022-10-29T02:19:16.847Z,101508.28
2022-10-29T02:21:19.768Z,101503.06
2022-10-29T02:23:26.321Z,101496.03
2022-10-29T02:25:30.279Z,101496.22
2022-10-29T02:27:33.711Z,101486.69
2022-10-29T02:29:36.205Z,101486.69
2022-10-29T02:31:41.556Z,101498.91
2022-10-29T02:33:48.343Z,101496.09
2022-10-29T02:35:53.212Z,101498.75
2022-10-29T02:37:56.635Z,101488.41
2022-10-29T02:39:58.778Z,101471.22
2022-10-29T02:42:14.742Z,101467.63
2022-10-29T02:44:51.044Z,101456.44
2022-10-29T02:46:59.112Z,101450.53
2022-10-29T02:49:24.188Z,101448.81
2022-10-29T02:51:26.156Z,101454.03
2022-10-29T02:53:28.117Z,101443.59
2022-10-29T02:55:30.025Z,101433.31
2022-10-29T02:57:32.620Z,101424.78
2022-10-29T02:59:34.416Z,101423.94
2022-10-29T03:01:36.844Z,101412.69
2022-10-29T03:03:38.683Z,101413.50
2022-10-29T03:05:45.133Z,101414.44
2022-10-29T03:07:50.382Z,101406.63
2022-10-29T03:09:52.202Z,101399.72
2022-10-29T03:11:54.488Z,101391.19
2022-10-29T03:13:56.371Z,101388.56
2022-10-29T03:15:58.460Z,101386.91
2022-10-29T03:18:00.247Z,101379.88
2022-10-29T03:20:02.508Z,101385.19
2022-10-29T03:22:08.366Z,101374.81
2022-10-29T03:24:10.377Z,101374.91
2022-10-29T03:26:12.242Z,101376.63
2022-10-29T03:28:14.109Z,101384.28
2022-10-29T03:30:17.495Z,101383.53
2022-10-29T03:32:19.278Z,101382.66
2022-10-29T03:34:21.152Z,101386.13
2022-10-29T03:36:23.209Z,101387.13
2022-10-29T03:38:25.316Z,101372.41
2022-10-29T03:40:27.306Z,101356.88
2022-10-29T03:42:31.387Z,101353.47
2022-10-29T03:44:33.524Z,101351.81
2022-10-29T03:46:35.287Z,101336.25
2022-10-29T03:48:38.111Z,101325.00
2022-10-29T03:50:39.911Z,101325.88
2022-10-29T03:52:41.997Z,101319.81
2022-10-29T03:54:44.043Z,101312.06
2022-10-29T03:56:45.852Z,101311.22
2022-10-29T03:58:47.791Z,101312.91
2022-10-29T04:01:00.480Z,101317.28
2022-10-29T04:03:02.485Z,101311.22
2022-10-29T04:05:04.551Z,101308.75
2022-10-29T04:07:06.497Z,101304.34
2022-10-29T04:09:08.886Z,101310.47
2022-10-29T04:11:14.172Z,101302.69
2022-10-29T04:13:16.826Z,101313.09
2022-10-29T04:15:19.202Z,101311.34
2022-10-29T04:17:20.903Z,101307.03
2022-10-29T04:19:22.681Z,101309.69
2022-10-29T04:23:25.383Z,101298.38
2022-10-29T04:28:45.400Z,101306.16
2022-10-29T04:30:48.147Z,101302.75
2022-10-29T04:32:50.339Z,101302.78
2022-10-29T04:34:52.191Z,101299.31
2022-10-29T04:36:54.176Z,101297.50
2022-10-29T04:38:56.371Z,101290.63
2022-10-29T04:41:00.360Z,101286.28
2022-10-29T04:43:02.215Z,101280.22
2022-10-29T04:45:06.008Z,101271.59
2022-10-29T04:47:07.766Z,101262.13
2022-10-29T04:49:09.885Z,101257.84
2022-10-29T04:51:26.420Z,101246.56
2022-10-29T04:53:28.735Z,101231.94
2022-10-29T04:55:31.523Z,101239.69
2022-10-29T04:57:33.451Z,101240.59
2022-10-29T04:59:35.322Z,101239.72
2022-10-29T05:01:37.292Z,101238.00
2022-10-29T05:03:39.162Z,101231.09
2022-10-29T05:05:41.960Z,101227.72
2022-10-29T05:07:43.977Z,101230.31
2022-10-29T05:09:45.793Z,101225.97
2022-10-29T05:11:48.628Z,101219.06
2022-10-29T05:13:50.846Z,101220.81
2022-10-29T05:15:53.714Z,101211.28
2022-10-29T05:17:57.868Z,101211.28
2022-10-29T05:19:59.936Z,101198.28
2022-10-29T05:22:02.066Z,101179.28
2022-10-29T05:24:04.430Z,101165.41
2022-10-29T05:26:07.154Z,101171.41
2022-10-29T05:28:19.506Z,101159.25
2022-10-29T05:30:21.507Z,101161.88
2022-10-29T05:32:23.820Z,101161.88
2022-10-29T05:34:26.276Z,101164.50
2022-10-29T05:36:28.527Z,101156.72
2022-10-29T05:38:30.652Z,101161.03
2022-10-29T05:40:34.118Z,101160.16
2022-10-29T05:42:39.328Z,101153.19
2022-10-29T05:44:44.130Z,101155.84
2022-10-29T05:46:50.069Z,101155.84
2022-10-29T05:48:52.142Z,101162.78
2022-10-29T05:50:54.641Z,101162.75
2022-10-29T05:52:57.885Z,101172.28
2022-10-29T05:55:00.871Z,101165.38
2022-10-29T05:57:02.844Z,101175.75
2022-10-29T05:59:04.703Z,101164.53
2022-10-29T06:01:09.464Z,101170.59
2022-10-29T06:03:21.857Z,101174.00
2022-10-29T06:05:24.524Z,101162.75
2022-10-29T06:07:26.494Z,101170.47
2022-10-29T06:09:28.462Z,101162.72
2022-10-29T06:11:30.522Z,101154.03
2022-10-29T06:13:32.484Z,101146.25
2022-10-29T06:15:34.342Z,101151.47
2022-10-29T06:17:41.693Z,101146.25
2022-10-29T06:19:43.525Z,101127.25
2022-10-29T06:21:45.593Z,101135.88
2022-10-29T06:23:47.573Z,101133.28
2022-10-29T06:25:49.562Z,101130.69
2022-10-29T06:28:02.080Z,101141.00
2022-10-29T06:30:05.773Z,101134.09
2022-10-29T06:32:07.642Z,101132.34
2022-10-29T06:34:09.412Z,101129.81
2022-10-29T06:36:11.315Z,101134.94
2022-10-29T06:38:13.386Z,101133.28
2022-10-29T06:40:15.480Z,101135.88
2022-10-29T06:42:17.663Z,101137.56
2022-10-29T06:44:19.511Z,101141.00
2022-10-29T06:46:21.578Z,101139.25
2022-10-29T06:48:23.787Z,101137.53
2022-10-29T06:50:26.085Z,101136.66
2022-10-29T06:52:28.013Z,101141.00
2022-10-29T06:54:30.824Z,101141.00
2022-10-29T06:56:34.235Z,101141.88
2022-10-29T06:58:36.192Z,101147.03
2022-10-29T07:00:38.278Z,101143.66
2022-10-29T07:02:40.274Z,101134.94
2022-10-29T07:04:42.102Z,101130.69
2022-10-29T07:06:44.161Z,101125.50
2022-10-29T07:08:46.125Z,101135.00
2022-10-29T07:10:51.948Z,101126.31
2022-10-29T07:12:54.257Z,101117.72
2022-10-29T07:14:56.272Z,101116.00
2022-10-29T07:16:58.188Z,101109.06
2022-10-29T07:19:00.163Z,101104.75
2022-10-29T07:21:04.852Z,101101.28
2022-10-29T07:23:07.431Z,101110.81
2022-10-29T07:25:09.941Z,101096.13
2022-10-29T07:27:12.036Z,101087.53
2022-10-29T07:29:14.061Z,101094.44
2022-10-29T07:31:16.003Z,101083.25
2022-10-29T07:33:18.841Z,101083.19
2022-10-29T07:35:20.755Z,101094.50
2022-10-29T07:37:22.713Z,101102.28
2022-10-29T07:39:24.674Z,101104.00
2022-10-29T07:41:26.584Z,101106.66
2022-10-29T07:43:28.474Z,101106.66
2022-10-29T07:45:30.355Z,101125.56
2022-10-29T07:47:33.004Z,101121.25
2022-10-29T07:49:34.903Z,101127.38
2022-10-29T07:51:36.875Z,101124.81
2022-10-29T07:53:38.769Z,101113.56
2022-10-29T07:55:40.813Z,101105.84
2022-10-29T07:57:42.665Z,101116.22
2022-10-29T07:59:44.465Z,101128.28
2022-10-29T08:01:48.329Z,101145.63
2022-10-29T08:03:55.422Z,101139.59
2022-10-29T08:05:57.891Z,101143.06
2022-10-29T08:08:00.609Z,101128.34
2022-10-29T08:10:03.284Z,101141.38
2022-10-29T08:12:07.252Z,101132.72
2022-10-29T08:14:10.154Z,101119.72
2022-10-29T08:16:12.051Z,101109.38
2022-10-29T08:18:16.925Z,101126.69
2022-10-29T08:20:20.703Z,101128.47
2022-10-29T08:22:22.834Z,101131.06
2022-10-29T08:24:24.814Z,101132.78
2022-10-29T08:26:26.634Z,101127.63
2022-10-29T08:28:31.682Z,101142.31
2022-10-29T08:30:35.966Z,101147.50
2022-10-29T08:32:45.515Z,101138.03
2022-10-29T08:34:48.713Z,101132.81
2022-10-29T08:36:50.892Z,101129.44
2022-10-29T08:38:52.759Z,101129.44
2022-10-29T08:40:57.004Z,101131.19
2022-10-29T08:43:22.574Z,101106.94
2022-10-29T08:45:34.187Z,101110.41
2022-10-29T08:47:47.660Z,101106.09
2022-10-29T08:50:11.203Z,101123.41
2022-10-29T08:52:24.589Z,101133.81
2022-10-29T08:54:32.414Z,101124.28
2022-10-29T08:56:37.263Z,101125.16
2022-10-29T08:58:50.835Z,101119.09
2022-10-29T09:00:57.641Z,101119.97
2022-10-29T09:03:01.051Z,101119.09
2022-10-29T09:05:03.734Z,101125.16
2022-10-29T09:07:22.593Z,101124.28
2022-10-29T09:09:38.791Z,101119.97
2022-10-29T09:11:49.914Z,101113.91
2022-10-29T09:14:11.473Z,101106.09
2022-10-29T09:16:29.209Z,101097.41
2022-10-29T09:18:37.525Z,101100.03
2022-10-29T09:20:50.373Z,101095.69
2022-10-29T09:23:12.683Z,101091.34
2022-10-29T09:25:27.966Z,101101.75
2022-10-29T09:27:46.566Z,101105.25
2022-10-29T09:30:04.661Z,101097.44
2022-10-29T09:32:13.401Z,101104.38
2022-10-29T09:34:26.010Z,101093.97
2022-10-29T09:36:30.236Z,101088.72
2022-10-29T09:38:35.017Z,101089.59
2022-10-29T09:40:39.353Z,101095.69
2022-10-29T09:42:44.806Z,101106.06
2022-10-29T09:44:55.356Z,101112.16
2022-10-29T09:47:16.894Z,101120.81
2022-10-29T09:49:35.254Z,101121.69
2022-10-29T09:51:51.615Z,101117.28
2022-10-29T09:53:53.898Z,101111.22
2022-10-29T09:55:55.892Z,101122.47
2022-10-29T09:57:58.319Z,101115.47
2022-10-29T10:00:04.644Z,101105.09
2022-10-29T10:02:23.251Z,101104.19
2022-10-29T10:04:34.556Z,101105.91
2022-10-29T10:07:05.948Z,101106.72
2022-10-29T10:09:07.808Z,101117.13
2022-10-29T10:11:20.610Z,101113.59
2022-10-29T10:13:27.666Z,101099.69
2022-10-29T10:15:33.992Z,101116.97
2022-10-29T10:17:54.662Z,101109.97
2022-10-29T10:19:56.875Z,101113.31
2022-10-29T10:22:04.502Z,101113.25
2022-10-29T10:24:29.671Z,101113.25
2022-10-29T10:26:43.762Z,101114.03
2022-10-29T10:28:45.981Z,101109.63
2022-10-29T10:31:08.018Z,101106.09
2022-10-29T10:35:31.587Z,101109.50
2022-10-29T10:37:34.307Z,101114.72
2022-10-29T10:39:44.611Z,101119.00
2022-10-29T10:41:50.057Z,101118.00
2022-10-29T10:43:52.526Z,101120.59
2022-10-29T10:45:59.946Z,101115.28
2022-10-29T10:48:02.408Z,101110.84
2022-10-29T10:50:18.833Z,101108.22
2022-10-29T10:52:31.824Z,101121.09
2022-10-29T10:54:38.429Z,101115.78
2022-10-29T10:56:56.499Z,101127.03
2022-10-29T10:59:12.999Z,101111.38
2022-10-29T11:01:23.668Z,101120.00
2022-10-29T11:03:41.991Z,101117.25
2022-10-29T11:05:50.625Z,101118.91
2022-10-29T11:08:07.791Z,101121.50
2022-10-29T11:10:12.794Z,101130.19
2022-10-29T11:12:28.325Z,101115.31
2022-10-29T11:14:44.133Z,101117.16
2022-10-29T11:16:52.466Z,101111.00
2022-10-29T11:19:04.342Z,101118.94
2022-10-29T11:21:15.565Z,101104.09
2022-10-29T11:23:25.204Z,101096.03
2022-10-29T11:25:36.383Z,101096.03
2022-10-29T11:27:52.539Z,101087.22
2022-10-29T11:30:05.745Z,101090.75
2022-10-29T11:32:24.160Z,101088.88
2022-10-29T11:34:41.807Z,101080.13
2022-10-29T11:36:53.326Z,101069.75
2022-10-29T11:39:13.805Z,101047.75
2022-10-29T11:41:30.268Z,101051.97
2022-10-29T11:43:33.928Z,101047.44
2022-10-29T11:45:48.302Z,101043.78
2022-10-29T11:48:09.123Z,101050.66
2022-10-29T11:50:24.560Z,101051.47
2022-10-29T11:52:46.066Z,101045.34
2022-10-29T11:54:54.171Z,101043.69
2022-10-29T11:57:05.142Z,101041.00
2022-10-29T11:59:16.870Z,101027.84
2022-10-29T12:01:25.282Z,101029.47
2022-10-29T12:03:33.600Z,101025.00
2022-10-29T12:05:39.708Z,101024.06
2022-10-29T12:07:55.630Z,101029.09
2022-10-29T12:10:02.453Z,101015.06
2022-10-29T12:12:13.333Z,101030.41
2022-10-29T12:14:30.204Z,101024.31
2022-10-29T12:16:36.724Z,101020.66
2022-10-29T12:18:40.556Z,101019.47
2022-10-29T12:20:46.106Z,101014.97
2022-10-29T12:23:02.603Z,101013.00
2022-10-29T12:25:11.597Z,101014.53
2022-10-29T12:27:27.270Z,101015.34
2022-10-29T12:31:46.079Z,101011.78
2022-10-29T12:33:58.549Z,101009.00
2022-10-29T12:36:08.173Z,100998.22
2022-10-29T12:38:16.577Z,100993.75
2022-10-29T12:40:23.567Z,100999.88
2022-10-29T12:42:27.803Z,100997.03
2022-10-29T12:44:44.872Z,100998.03
2022-10-29T12:47:03.396Z,100988.69
2022-10-29T12:49:13.481Z,100984.31
2022-10-29T12:51:24.726Z,100976.38
2022-10-29T12:53:32.973Z,100975.19
2022-10-29T12:55:37.282Z,100982.41
2022-10-29T12:57:39.626Z,100975.28
2022-10-29T12:59:44.557Z,100978.34
2022-10-29T13:02:10.362Z,100976.69
2022-10-29T13:04:23.251Z,100973.09
2022-10-29T13:06:43.921Z,100980.88
2022-10-29T13:08:55.336Z,100976.34
2022-10-29T13:10:57.766Z,100976.53
2022-10-29T13:13:00.623Z,100969.38
2022-10-29T13:15:10.532Z,100964.38
2022-10-29T13:17:18.907Z,100967.00
2022-10-29T13:19:25.407Z,100958.50
2022-10-29T13:21:33.939Z,100963.56
2022-10-29T13:23:37.968Z,100970.56
2022-10-29T13:25:41.816Z,100967.91
2022-10-29T13:27:43.954Z,100964.13
2022-10-29T13:29:50.603Z,100959.66
2022-10-29T13:31:52.665Z,100947.47
2022-10-29T13:33:54.906Z,100948.38
2022-10-29T13:36:00.648Z,100953.56
2022-10-29T13:38:08.947Z,100953.47
2022-10-29T13:40:20.328Z,100956.78
2022-10-29T13:42:23.039Z,100952.47
2022-10-29T13:44:28.096Z,100947.25
2022-10-29T13:46:39.075Z,100956.94
2022-10-29T13:48:45.874Z,100952.09
2022-10-29T13:50:51.769Z,100954.06
2022-10-29T13:52:58.583Z,100953.97
2022-10-29T13:55:07.213Z,100963.56
2022-10-29T13:57:19.806Z,100958.41
2022-10-29T13:59:38.481Z,100960.94
2022-10-29T14:01:54.855Z,100959.31
2022-10-29T14:04:03.912Z,100954.91
2022-10-29T14:06:12.164Z,100946.47
2022-10-29T14:08:20.593Z,100949.81
2022-10-29T14:10:26.635Z,100958.78
2022-10-29T14:12:31.664Z,100955.91
2022-10-29T14:14:46.063Z,100951.72
2022-10-29T14:16:48.124Z,100956.25
2022-10-29T14:18:52.465Z,100952.66
2022-10-29T14:20:56.126Z,100950.28
2022-10-29T14:23:08.230Z,100951.09
2022-10-29T14:25:18.095Z,100944.22
2022-10-29T14:27:20.447Z,100944.22
2022-10-29T14:29:24.604Z,100944.31
2022-10-29T14:31:26.986Z,100958.06
2022-10-29T14:33:33.480Z,100964.94
2022-10-29T14:35:35.570Z,100956.06
2022-10-29T14:37:41.047Z,100958.06
2022-10-29T14:39:58.067Z,100954.63
2022-10-29T14:42:01.985Z,100951.31
2022-10-29T14:44:10.335Z,100957.63
2022-10-29T14:46:22.451Z,100953.28
2022-10-29T14:48:24.686Z,100948.00
2022-10-29T14:50:29.009Z,100948.25
2022-10-29T14:52:33.904Z,100951.97
2022-10-29T14:54:40.280Z,100950.06
2022-10-29T14:56:42.584Z,100957.16
2022-10-29T14:58:45.065Z,100956.31
2022-10-29T15:00:57.051Z,100942.34
2022-10-29T15:02:59.943Z,100952.53
2022-10-29T15:05:07.531Z,100964.81
2022-10-29T15:07:16.171Z,100959.59
2022-10-29T15:09:21.498Z,100955.22
2022-10-29T15:11:29.815Z,100956.25
2022-10-29T15:13:35.208Z,100961.47
2022-10-29T15:15:37.686Z,100974.75
2022-10-29T15:17:50.714Z,100964.63
2022-10-29T15:19:58.961Z,100976.94
2022-10-29T15:22:01.294Z,100976.94
2022-10-29T15:24:08.614Z,100976.97
2022-10-29T15:26:17.850Z,100974.75
2022-10-29T15:28:24.974Z,100959.00
2022-10-29T15:30:34.995Z,100942.78
2022-10-29T15:32:37.226Z,100948.09
2022-10-29T15:34:40.749Z,100941.28
2022-10-29T15:36:49.045Z,100945.59
2022-10-29T15:38:52.582Z,100943.03
2022-10-29T15:41:15.170Z,100936.31
2022-10-29T15:43:23.563Z,100936.38
2022-10-29T15:45:28.598Z,100926.91
2022-10-29T15:47:30.904Z,100926.94
2022-10-29T15:49:38.134Z,100931.69
2022-10-29T15:51:40.250Z,100934.38
2022-10-29T15:53:42.508Z,100936.91
2022-10-29T15:55:45.034Z,100934.38
2022-10-29T15:57:47.310Z,100949.41
2022-10-29T15:59:55.605Z,100945.91
2022-10-29T16:01:57.860Z,100924.97
2022-10-29T16:04:00.203Z,100939.16
2022-10-29T16:06:04.544Z,100946.13
2022-10-29T16:08:06.716Z,100945.44
2022-10-29T16:10:16.168Z,100943.00
2022-10-29T16:12:18.528Z,100956.06
2022-10-29T16:14:20.727Z,100962.28
2022-10-29T16:16:25.089Z,100979.75
2022-10-29T16:18:27.406Z,100980.66
2022-10-29T16:20:29.447Z,100985.22
2022-10-29T16:22:31.881Z,100976.59
2022-10-29T16:24:35.208Z,100970.53
2022-10-29T16:26:37.267Z,100968.91
2022-10-29T16:28:39.408Z,100980.28
2022-10-29T16:30:52.550Z,101010.59
2022-10-29T16:32:55.192Z,100991.63
2022-10-29T16:34:57.824Z,100991.59
2022-10-29T16:36:59.993Z,100995.97
2022-10-29T16:39:02.310Z,100998.69
2022-10-29T16:41:04.843Z,101007.44
2022-10-29T16:43:07.050Z,101013.66
2022-10-29T16:45:14.367Z,101006.66
2022-10-29T16:47:16.504Z,101008.44
2022-10-29T16:49:18.585Z,101009.50
2022-10-29T16:51:23.432Z,101006.00
2022-10-29T16:53:25.643Z,101003.38
2022-10-29T16:55:29.397Z,101002.63
2022-10-29T16:57:31.519Z,101012.22
2022-10-29T16:59:33.645Z,101013.06
2022-10-29T17:01:35.887Z,101014.88
2022-10-29T17:03:39.433Z,101019.38
2022-10-29T17:05:44.665Z,101021.09
2022-10-29T17:07:46.672Z,101022.91
2022-10-29T17:09:48.789Z,101025.50
2022-10-29T17:11:50.867Z,101020.31
2022-10-29T17:13:53.392Z,101027.28
2022-10-29T17:15:55.667Z,101023.91
2022-10-29T17:17:57.981Z,101025.63
2022-10-29T17:20:00.269Z,101036.13
2022-10-29T17:22:04.347Z,101015.22
2022-10-29T17:24:08.039Z,101015.25
2022-10-29T17:26:10.255Z,101016.09
2022-10-29T17:28:12.221Z,101026.72
2022-10-29T17:30:14.308Z,101024.00
2022-10-29T17:32:16.807Z,101032.75
2022-10-29T17:34:18.987Z,101050.19
2022-10-29T17:36:21.088Z,101038.88
2022-10-29T17:38:23.197Z,101042.41
2022-10-29T17:40:27.319Z,101046.00
2022-10-29T17:42:29.424Z,101054.63
2022-10-29T17:44:34.095Z,101055.50
2022-10-29T17:46:36.368Z,101068.66
2022-10-29T17:48:39.205Z,101074.69
2022-10-29T17:50:41.204Z,101080.81
2022-10-29T17:52:43.327Z,101080.94
2022-10-29T17:54:45.397Z,101074.81
2022-10-29T17:56:49.244Z,101080.91
2022-10-29T17:58:51.447Z,101079.19
2022-10-29T18:00:53.963Z,101075.78
2022-10-29T18:02:56.061Z,101083.50
2022-10-29T18:04:58.150Z,101092.28
2022-10-29T18:07:00.319Z,101114.06
2022-10-29T18:09:02.353Z,101101.00
2022-10-29T18:11:07.924Z,101101.06
2022-10-29T18:13:09.988Z,101096.75
2022-10-29T18:15:11.996Z,101105.38
2022-10-29T18:17:14.283Z,101094.94
2022-10-29T18:19:17.547Z,101098.44
2022-10-29T18:21:21.523Z,101095.91
2022-10-29T18:23:23.669Z,101097.59
2022-10-29T18:25:26.017Z,101101.91
2022-10-29T18:27:28.285Z,101101.81
2022-10-29T18:29:32.435Z,101108.81
2022-10-29T18:31:35.923Z,101114.03
2022-10-29T18:33:38.022Z,101114.88
2022-10-29T18:35:40.025Z,101106.19
2022-10-29T18:37:42.054Z,101106.16
2022-10-29T18:39:44.084Z,101099.13
2022-10-29T18:41:46.082Z,101092.19
2022-10-29T18:43:48.853Z,101099.16
2022-10-29T18:45:55.859Z,101100.97
2022-10-29T18:47:58.721Z,101094.88
2022-10-29T18:50:01.139Z,101082.63
2022-10-29T18:52:03.263Z,101081.75
2022-10-29T18:54:05.823Z,101079.22
2022-10-29T18:56:11.546Z,101086.09
2022-10-29T18:58:13.628Z,101084.34
2022-10-29T19:00:16.752Z,101086.13
2022-10-29T19:02:19.023Z,101080.03
2022-10-29T19:04:21.295Z,101098.31
2022-10-29T19:06:25.089Z,101099.13
2022-10-29T19:08:27.104Z,101093.06
2022-10-29T19:10:29.386Z,101101.78
2022-10-29T19:12:31.543Z,101117.41
2022-10-29T19:14:33.668Z,101119.16
2022-10-29T19:16:35.804Z,101126.13
2022-10-29T19:18:39.165Z,101130.47
2022-10-29T19:20:41.327Z,101121.78
2022-10-29T19:22:43.644Z,101127.88
2022-10-29T19:24:45.638Z,101122.69
2022-10-29T19:26:47.773Z,101118.28
2022-10-29T19:28:49.963Z,101130.50
2022-10-29T19:30:51.992Z,101118.31
2022-10-29T19:32:54.369Z,101117.44
2022-10-29T19:34:56.646Z,101122.72
2022-10-29T19:36:59.084Z,101120.13
2022-10-29T19:39:01.177Z,101127.06
2022-10-29T19:41:03.290Z,101109.66
2022-10-29T19:43:05.375Z,101112.28
2022-10-29T19:45:07.998Z,101111.44
2022-10-29T19:47:10.166Z,101098.44
2022-10-29T19:49:12.169Z,101096.69
2022-10-29T19:51:14.243Z,101096.72
2022-10-29T19:53:16.343Z,101112.41
2022-10-29T19:55:18.405Z,101109.75
2022-10-29T19:57:20.445Z,101115.84
2022-10-29T19:59:22.571Z,101107.16
2022-10-29T20:01:24.718Z,101110.63
2022-10-29T20:03:26.775Z,101118.50
2022-10-29T20:05:29.086Z,101118.50
2022-10-29T20:07:31.254Z,101122.88
2022-10-29T20:09:33.299Z,101116.81
2022-10-29T20:11:35.508Z,101106.38
2022-10-29T20:13:38.244Z,101089.84
2022-10-29T20:15:40.316Z,101096.84
2022-10-29T20:17:42.343Z,101094.22
2022-10-29T20:19:44.898Z,101105.56
2022-10-29T20:21:46.982Z,101112.56
2022-10-29T20:23:49.031Z,101122.09
2022-10-29T20:25:51.107Z,101120.38
2022-10-29T20:27:53.241Z,101121.22
2022-10-29T20:29:55.328Z,101112.56
2022-10-29T20:31:57.450Z,101116.03
2022-10-29T20:34:01.043Z,101116.03
2022-10-29T20:36:03.268Z,101118.69
2022-10-29T20:38:05.943Z,101130.81
2022-10-29T20:40:08.931Z,101133.44
2022-10-29T20:42:11.125Z,101142.13
2022-10-29T20:44:13.226Z,101130.00
2022-10-29T20:46:15.145Z,101119.56
2022-10-29T20:48:17.246Z,101124.75
2022-10-29T20:50:19.345Z,101129.13
2022-10-29T20:52:21.441Z,101132.63
2022-10-29T20:54:23.469Z,101122.22
2022-10-29T20:56:27.680Z,101121.25
2022-10-29T20:58:29.670Z,101128.28
2022-10-29T21:00:31.667Z,101135.22
2022-10-29T21:02:33.821Z,101128.31
2022-10-29T21:04:35.913Z,101131.81
2022-10-29T21:06:37.988Z,101130.94
2022-10-29T21:08:40.229Z,101131.84
2022-10-29T21:10:42.522Z,101143.94
2022-10-29T21:12:44.562Z,101154.38
2022-10-29T21:14:46.636Z,101152.66
2022-10-29T21:16:48.791Z,101162.25
2022-10-29T21:18:53.648Z,101157.91
2022-10-29T21:20:55.688Z,101156.16
2022-10-29T21:22:58.086Z,101160.56
2022-10-29T21:25:00.217Z,101169.22
2022-10-29T21:27:02.374Z,101164.88
2022-10-29T21:29:04.457Z,101164.03
2022-10-29T21:31:06.524Z,101170.09
2022-10-29T21:33:10.430Z,101163.16
2022-10-29T21:35:12.334Z,101173.63
2022-10-29T21:37:14.468Z,101179.69
2022-10-29T21:39:16.657Z,101184.06
2022-10-29T21:41:18.701Z,101186.63
2022-10-29T21:43:22.295Z,101189.22
2022-10-29T21:45:24.342Z,101187.50
2022-10-29T21:47:26.385Z,101190.09
2022-10-29T21:49:28.383Z,101190.97
2022-10-29T21:51:30.397Z,101194.44
2022-10-29T21:53:33.016Z,101192.72
2022-10-29T21:55:35.650Z,101193.59
2022-10-29T21:57:37.737Z,101184.94
2022-10-29T21:59:40.437Z,101191.84
2022-10-29T22:01:42.632Z,101192.72
2022-10-29T22:03:46.483Z,101199.69
2022-10-29T22:05:48.462Z,101201.44
2022-10-29T22:07:50.470Z,101201.44
2022-10-29T22:09:52.514Z,101207.50
2022-10-29T22:11:54.479Z,101204.91
2022-10-29T22:13:56.546Z,101195.34
2022-10-29T22:15:59.202Z,101190.13
2022-10-29T22:18:01.305Z,101176.28
2022-10-29T22:20:03.622Z,101184.06
2022-10-29T22:22:05.705Z,101189.25
2022-10-29T22:24:09.560Z,101202.28
2022-10-29T22:26:12.387Z,101206.66
2022-10-29T22:28:14.652Z,101209.25
2022-10-29T22:30:16.681Z,101207.50
2022-10-29T22:32:18.584Z,101208.38
2022-10-29T22:34:20.639Z,101217.06
2022-10-29T22:36:25.198Z,101213.59
2022-10-29T22:38:27.301Z,101215.31
2022-10-29T22:40:29.215Z,101221.41
2022-10-29T22:42:31.212Z,101224.88
2022-10-29T22:44:33.266Z,101225.72
2022-10-29T22:46:35.366Z,101232.72
2022-10-29T22:48:37.364Z,101228.38
2022-10-29T22:50:39.348Z,101223.16
2022-10-29T22:54:43.242Z,101234.44
2022-10-29T22:56:47.243Z,101250.09
2022-10-29T22:58:49.504Z,101241.41
2022-10-29T23:01:02.282Z,101246.63
2022-10-29T23:03:04.439Z,101242.28
2022-10-29T23:05:07.113Z,101238.81
2022-10-29T23:07:09.138Z,101227.50
2022-10-29T23:09:11.096Z,101228.38
2022-10-29T23:11:19.648Z,101229.25
2022-10-29T23:13:22.072Z,101230.13
2022-10-29T23:15:24.023Z,101231.00
2022-10-29T23:17:25.970Z,101239.66
2022-10-29T23:19:27.905Z,101240.56
2022-10-29T23:21:30.236Z,101233.59
2022-10-29T23:23:34.205Z,101237.06
2022-10-29T23:25:36.307Z,101238.81
2022-10-29T23:27:38.221Z,101233.59
2022-10-29T23:29:40.151Z,101231.00
2022-10-29T23:31:42.172Z,101234.47
2022-10-29T23:33:46.930Z,101231.88
2022-10-29T23:35:49.581Z,101226.66
2022-10-29T23:37:51.646Z,101227.56
2022-10-29T23:39:53.683Z,101224.94
2022-10-29T23:41:55.616Z,101217.13
2022-10-29T23:43:58.372Z,101215.41
2022-10-29T23:46:00.417Z,101211.91
2022-10-29T23:48:02.364Z,101216.25
2022-10-29T23:50:04.517Z,101208.47
2022-10-29T23:52:06.482Z,101211.06
2022-10-29T23:54:08.458Z,101209.34
2022-10-29T23:56:10.425Z,101219.72
2022-10-29T23:58:13.318Z,101231.00
